Harmonyville, Vermont
Current Conditions -  °F | °C
As of 12:54 AM on Tuesday 27 Jan 2015 (Local Time) from KVSF Reporting Station
Overcast Overcast  
Wind Chill:   Ceiling: 10000
Heat Index: 17°   Visibility: 10mi
Dew Point: -6°   Wind: 8mph
Humidity: 36%   Direction: 30°NNE
Pressure: 29.91"   Gusts: NA
Location:  43.0642°N, 72.6668°W
Report Text: KVSF 270554Z AUTO 03007KT 10SM OVC100 M08/M21 A2991 RMK AO2 SLP141 T10831211 11072 21083 57035 TSNO
Loading
Personal Weather Stations






























Interactive Weather Map New forecast layout! Learn more

10-Day Weather Forecast

Advertisements
Track Severe Weather on mobile